Portada
METAR-TAF:

METAR-TAF

Aeroports :

Nakhon Si Thammarat, Tailàndia

latitud: 8-32-22N, longitud: 99-56-41E, altitud: 4 m

Observació

L'informe es va fer fa 8 hores i 49 minuts, a les 13:00 UTC
Vent 3 kt amb direcció variable
Temperatura 25°C
Humitat 94%
Pressió 1012 hPa
Visibilitat 10 km o més
Núvols disperses a una alçada de 1800 ft

METAR: VTSF 111300Z VRB03KT 9999 SCT018 25/24 Q1012 NOSIG

Hora: 04:49 (21:49 UTC)

Pronòstic

L'informe es va fer fa 4 hores i 49 minuts, a les 17:00 UTC
Pronòstic vàlid del 11 a les 18 UTC al 12 a les 18 UTC
Vent 3 kt del Nord-Oest
Visibilitat 10 km o més
Escasses núvols a una alçada de 2000 ft
Evolucionant progressivament
l' 12 a les 04 UTC al 12 a les 06 UTC
Vent 10 kt del Est/Nord-Est
Evolucionant progressivament
l' 12 a les 13 UTC al 12 a les 15 UTC
Vent 3 kt del Nord/Nord-Oest

TAF: VTSF 111700Z 1118/1218 31003KT 9999 FEW020 BECMG 1204/1206 06010KT BECMG 1213/1215 34003KT

Observacions i pronòstics meteorològics de més de 4000 aeroports (METAR i TAF).

Les estacions disponibles són els punts grocs i vermells al mapa.

Posi el ratolí al punt desitjat per veure el nom de l'estació.

Feu clic per veure les observacions i els pronòstics meteorològics.

Per canviar el mapa: feu clic els botons verds amb una creu de color negre per apropar; al botó verd amb un guió per allunyar la imatge; o en les fletxes verdes per a mapes adjacents.


METAR-TAF: